createdAt,value
2022-12-23T00:02:22.263Z,22.42
2022-12-23T00:04:48.713Z,16.33
2022-12-23T00:07:15.080Z,21.05
2022-12-23T00:09:41.447Z,12.70
2022-12-23T00:12:26.433Z,13.60
2022-12-23T00:15:07.648Z,21.27
2022-12-23T00:17:35.860Z,20.27
2022-12-23T00:20:03.227Z,17.13
2022-12-23T00:22:48.181Z,16.48
2022-12-23T00:25:14.730Z,21.70
2022-12-23T00:27:41.243Z,19.73
2022-12-23T00:30:09.682Z,14.05
2022-12-23T00:32:36.339Z,16.75
2022-12-23T00:35:02.764Z,16.65
2022-12-23T00:37:31.144Z,19.50
2022-12-23T00:40:16.021Z,20.45
2022-12-23T00:42:54.568Z,14.80
2022-12-23T00:45:20.999Z,15.50
2022-12-23T00:48:06.532Z,19.35
2022-12-23T00:50:36.046Z,13.70
2022-12-23T00:53:02.548Z,16.77
2022-12-23T00:55:28.968Z,13.57
2022-12-23T00:57:55.362Z,22.55
2022-12-23T01:00:42.389Z,17.42
2022-12-23T01:03:42.623Z,18.95
2022-12-23T01:06:09.077Z,19.30
2022-12-23T01:08:35.453Z,16.85
2022-12-23T01:11:03.931Z,15.20
2022-12-23T01:13:30.375Z,15.27
2022-12-23T01:16:05.260Z,16.40
2022-12-23T01:18:31.706Z,17.50
2022-12-23T01:21:05.008Z,20.60
2022-12-23T01:23:31.853Z,13.25
2022-12-23T01:29:18.547Z,16.15
2022-12-23T01:31:44.975Z,16.30
2022-12-23T01:34:11.492Z,15.98
2022-12-23T01:36:37.970Z,15.68
2022-12-23T01:39:04.719Z,22.40
2022-12-23T01:41:51.910Z,15.38
2022-12-23T01:44:53.699Z,19.02
2022-12-23T01:47:24.896Z,13.18
2022-12-23T01:49:57.314Z,21.60
2022-12-23T01:52:24.064Z,21.25
2022-12-23T01:54:51.039Z,14.05
2022-12-23T01:57:17.461Z,17.55
2022-12-23T02:00:03.533Z,17.30
2022-12-23T02:02:50.277Z,11.70
2022-12-23T02:05:17.422Z,13.18
2022-12-23T02:08:03.096Z,12.35
2022-12-23T02:10:36.073Z,18.23
2022-12-23T02:14:00.235Z,16.35
2022-12-23T02:16:33.793Z,14.75
2022-12-23T02:19:10.107Z,18.58
2022-12-23T02:22:00.664Z,15.63
2022-12-23T02:25:13.283Z,17.13
2022-12-23T02:28:08.819Z,17.92
2022-12-23T02:30:53.063Z,12.18
2022-12-23T02:33:31.606Z,14.05
2022-12-23T02:36:16.293Z,16.65
2022-12-23T02:38:53.464Z,14.05
2022-12-23T02:41:28.383Z,17.05
2022-12-23T02:44:10.147Z,19.92
2022-12-23T02:46:46.171Z,11.15
2022-12-23T02:49:19.485Z,14.80
2022-12-23T02:51:53.084Z,16.45
2022-12-23T02:54:29.227Z,16.02
2022-12-23T02:56:57.721Z,14.23
2022-12-23T02:59:32.986Z,17.15
2022-12-23T03:02:01.003Z,15.90
2022-12-23T03:04:27.473Z,15.68
2022-12-23T03:06:55.586Z,13.57
2022-12-23T03:09:34.636Z,14.65
2022-12-23T03:12:16.232Z,12.70
2022-12-23T03:15:01.429Z,12.73
2022-12-23T03:17:41.746Z,16.15
2022-12-23T03:20:17.628Z,10.18
2022-12-23T03:22:57.338Z,10.00
2022-12-23T03:25:33.805Z,11.23
2022-12-23T03:28:39.792Z,13.20
2022-12-23T03:31:09.598Z,11.73
2022-12-23T03:33:40.821Z,12.93
2022-12-23T03:36:16.615Z,14.73
2022-12-23T03:38:44.894Z,11.13
2022-12-23T03:41:18.115Z,13.02
2022-12-23T03:43:51.153Z,12.57
2022-12-23T03:46:26.573Z,9.93
2022-12-23T03:48:58.615Z,9.70
2022-12-23T03:51:34.584Z,12.52
2022-12-23T03:54:05.205Z,7.18
2022-12-23T03:56:36.438Z,9.52
2022-12-23T03:59:19.441Z,12.57
2022-12-23T04:02:00.119Z,9.10
2022-12-23T04:04:57.371Z,9.23
2022-12-23T04:07:30.302Z,9.88
2022-12-23T04:09:58.225Z,10.02
2022-12-23T04:12:26.688Z,9.27
2022-12-23T04:14:53.289Z,15.00
2022-12-23T04:17:20.025Z,11.07
2022-12-23T04:19:47.193Z,10.23
2022-12-23T04:22:15.606Z,8.02
2022-12-23T04:24:42.399Z,7.47
2022-12-23T04:27:12.332Z,8.88
2022-12-23T04:29:38.722Z,10.23
2022-12-23T04:32:05.528Z,10.52
2022-12-23T04:34:31.940Z,8.98
2022-12-23T04:36:58.380Z,10.23
2022-12-23T04:39:24.983Z,10.48
2022-12-23T04:41:51.444Z,7.78
2022-12-23T04:44:17.871Z,13.18
2022-12-23T04:46:44.288Z,10.18
2022-12-23T04:49:10.820Z,14.10
2022-12-23T04:51:37.245Z,9.32
2022-12-23T04:54:03.790Z,12.57
2022-12-23T04:56:30.199Z,10.05
2022-12-23T04:58:56.568Z,10.82
2022-12-23T05:01:23.020Z,9.73
2022-12-23T05:03:49.505Z,13.65
2022-12-23T05:06:15.974Z,8.23
2022-12-23T05:08:42.389Z,10.98
2022-12-23T05:11:08.772Z,9.88
2022-12-23T05:13:35.169Z,15.18
2022-12-23T05:16:01.629Z,13.10
2022-12-23T05:18:28.197Z,11.93
2022-12-23T05:20:55.419Z,10.07
2022-12-23T05:23:21.852Z,10.65
2022-12-23T05:25:53.248Z,12.43
2022-12-23T05:28:21.452Z,12.90
2022-12-23T05:30:48.292Z,13.90
2022-12-23T05:33:15.364Z,12.68
2022-12-23T05:35:41.773Z,9.80
2022-12-23T05:38:08.893Z,10.35
2022-12-23T05:40:35.608Z,10.55
2022-12-23T05:43:02.386Z,11.20
2022-12-23T05:45:28.916Z,9.52
2022-12-23T05:47:55.384Z,8.88
2022-12-23T05:50:21.773Z,11.05
2022-12-23T05:52:48.223Z,10.40
2022-12-23T05:55:14.591Z,10.40
2022-12-23T05:57:41.180Z,11.98
2022-12-23T06:00:08.251Z,6.68
2022-12-23T06:02:34.899Z,7.47
2022-12-23T06:05:01.646Z,7.18
2022-12-23T06:07:28.186Z,6.53
2022-12-23T06:09:54.724Z,8.32
2022-12-23T06:12:21.100Z,7.63
2022-12-23T06:14:47.504Z,8.63
2022-12-23T06:17:14.217Z,5.43
2022-12-23T06:19:40.651Z,7.15
2022-12-23T06:22:07.051Z,5.82
2022-12-23T06:24:33.591Z,6.50
2022-12-23T06:27:00.039Z,6.57
2022-12-23T06:29:26.446Z,6.35
2022-12-23T06:31:53.237Z,5.65
2022-12-23T06:34:19.813Z,5.78
2022-12-23T06:36:46.330Z,6.50
2022-12-23T06:39:12.836Z,11.13
2022-12-23T06:41:39.390Z,6.18
2022-12-23T06:44:05.933Z,8.32
2022-12-23T06:46:32.603Z,6.68
2022-12-23T06:48:59.229Z,6.88
2022-12-23T06:51:25.663Z,9.68
2022-12-23T06:53:52.129Z,8.63
2022-12-23T06:56:18.773Z,6.57
2022-12-23T06:58:45.271Z,5.45
2022-12-23T07:01:11.874Z,8.38
2022-12-23T07:03:38.357Z,5.55
2022-12-23T07:06:05.100Z,5.47
2022-12-23T07:08:31.487Z,6.47
2022-12-23T07:11:03.401Z,4.30
2022-12-23T07:13:31.393Z,5.45
2022-12-23T07:15:58.130Z,5.78
2022-12-23T07:18:25.495Z,4.88
2022-12-23T07:20:52.633Z,4.88
2022-12-23T07:23:19.052Z,5.60
2022-12-23T07:25:45.556Z,2.90
2022-12-23T07:28:11.958Z,4.28
2022-12-23T07:30:38.419Z,3.83
2022-12-23T07:33:04.815Z,4.32
2022-12-23T07:35:31.373Z,5.70
2022-12-23T07:37:57.961Z,4.18
2022-12-23T07:40:26.807Z,4.75
2022-12-23T07:42:59.712Z,4.75
2022-12-23T07:45:28.332Z,4.95
2022-12-23T07:47:57.092Z,3.55
2022-12-23T07:50:23.858Z,8.55
2022-12-23T07:52:51.086Z,6.25
2022-12-23T07:55:17.621Z,5.70
2022-12-23T07:57:48.377Z,6.50
2022-12-23T08:02:41.814Z,15.65
2022-12-23T08:05:09.120Z,29.88
2022-12-23T08:07:36.387Z,34.97
2022-12-23T08:10:03.896Z,41.97
2022-12-23T08:12:30.381Z,33.80
2022-12-23T08:14:56.803Z,28.83
2022-12-23T08:17:27.328Z,24.85
2022-12-23T08:19:53.774Z,12.25
2022-12-23T08:22:20.189Z,9.10
2022-12-23T08:24:46.724Z,8.02
2022-12-23T08:27:13.531Z,6.07
2022-12-23T08:29:40.527Z,4.70
2022-12-23T08:32:07.229Z,4.60
2022-12-23T08:34:34.291Z,3.83
2022-12-23T08:37:01.447Z,3.92
2022-12-23T08:39:28.045Z,6.95
2022-12-23T08:41:54.626Z,3.05
2022-12-23T08:44:21.616Z,3.13
2022-12-23T08:46:48.282Z,4.55
2022-12-23T08:49:14.924Z,7.22
2022-12-23T08:51:41.413Z,7.28
2022-12-23T08:54:07.934Z,3.03
2022-12-23T08:56:39.310Z,3.55
2022-12-23T08:59:05.876Z,5.28
2022-12-23T09:01:34.487Z,5.32
2022-12-23T09:04:06.065Z,4.22
2022-12-23T09:06:36.573Z,4.15
2022-12-23T09:09:03.935Z,5.03
2022-12-23T09:11:30.722Z,3.05
2022-12-23T09:13:59.223Z,3.28
2022-12-23T09:16:26.202Z,3.10
2022-12-23T09:18:52.689Z,4.78
2022-12-23T09:21:21.734Z,4.50
2022-12-23T09:23:48.962Z,16.50
2022-12-23T09:26:24.583Z,10.93
2022-12-23T09:28:51.687Z,4.80
2022-12-23T09:31:18.805Z,5.15
2022-12-23T09:33:51.241Z,4.43
2022-12-23T09:36:17.890Z,4.07
2022-12-23T09:38:44.973Z,3.47
2022-12-23T09:41:48.697Z,3.53
2022-12-23T09:44:33.308Z,3.85
2022-12-23T09:47:05.922Z,3.83
2022-12-23T09:49:33.620Z,4.95
2022-12-23T09:52:03.640Z,3.53
2022-12-23T09:54:40.828Z,2.85
2022-12-23T09:57:33.812Z,2.05
2022-12-23T10:00:03.309Z,1.88
2022-12-23T10:03:07.129Z,4.95
2022-12-23T10:06:11.512Z,1.73
2022-12-23T10:08:42.092Z,1.70
2022-12-23T10:11:16.809Z,4.30
2022-12-23T10:13:53.982Z,2.33
2022-12-23T10:16:27.934Z,2.53
2022-12-23T10:19:03.523Z,2.22
2022-12-23T10:21:35.014Z,2.22
2022-12-23T10:24:11.123Z,2.78
2022-12-23T10:26:52.699Z,2.97
2022-12-23T10:29:24.732Z,3.03
2022-12-23T10:32:15.400Z,3.13
2022-12-23T10:35:04.898Z,5.32
2022-12-23T10:37:39.971Z,5.18
2022-12-23T10:40:33.005Z,6.63
2022-12-23T10:43:20.783Z,4.60
2022-12-23T10:46:20.752Z,6.65
2022-12-23T10:49:21.213Z,5.33
2022-12-23T10:52:00.091Z,5.82
2022-12-23T10:54:32.029Z,7.38
2022-12-23T10:56:58.711Z,5.47
2022-12-23T10:59:32.102Z,6.32
2022-12-23T11:02:12.329Z,7.90
2022-12-23T11:04:44.317Z,6.40
2022-12-23T11:10:06.110Z,7.50
2022-12-23T11:12:42.489Z,6.90
2022-12-23T11:15:27.855Z,10.65
2022-12-23T11:18:16.235Z,9.05
2022-12-23T11:20:45.699Z,12.18
2022-12-23T11:23:29.374Z,9.88
2022-12-23T11:26:08.598Z,12.07
2022-12-23T11:28:38.168Z,14.43
2022-12-23T11:31:14.236Z,12.90
2022-12-23T11:33:58.432Z,10.57
2022-12-23T11:36:27.753Z,12.55
2022-12-23T11:39:21.967Z,9.93
2022-12-23T11:41:52.387Z,12.15
2022-12-23T11:44:38.157Z,11.52
2022-12-23T11:47:22.798Z,13.82
2022-12-23T11:49:57.851Z,14.95
2022-12-23T11:52:30.227Z,11.90
2022-12-23T11:54:59.386Z,14.27
2022-12-23T11:57:48.258Z,14.18
2022-12-23T12:00:25.150Z,17.77
2022-12-23T12:02:58.699Z,10.57
2022-12-23T12:05:31.154Z,12.85
2022-12-23T12:08:05.724Z,9.80
2022-12-23T12:10:35.243Z,8.23
2022-12-23T12:13:05.621Z,8.77
2022-12-23T12:15:50.785Z,10.43
2022-12-23T12:18:19.500Z,8.35
2022-12-23T12:20:50.655Z,9.68
2022-12-23T12:23:25.400Z,10.20
2022-12-23T12:25:59.472Z,10.45
2022-12-23T12:28:32.797Z,10.27
2022-12-23T12:31:11.896Z,9.75
2022-12-23T12:33:48.311Z,9.63
2022-12-23T12:36:32.950Z,10.18
2022-12-23T12:39:00.474Z,8.00
2022-12-23T12:41:38.003Z,9.73
2022-12-23T12:44:28.817Z,9.98
2022-12-23T12:47:28.161Z,9.95
2022-12-23T12:49:59.073Z,11.35
2022-12-23T12:52:27.671Z,15.13
2022-12-23T12:55:26.640Z,13.45
2022-12-23T12:57:53.159Z,8.68
2022-12-23T13:00:22.297Z,14.88
2022-12-23T13:03:21.771Z,13.30
2022-12-23T13:05:59.837Z,13.55
2022-12-23T13:08:40.232Z,12.23
2022-12-23T13:11:20.123Z,8.77
2022-12-23T13:14:03.432Z,8.75
2022-12-23T13:16:41.851Z,8.60
2022-12-23T13:19:42.022Z,9.98
2022-12-23T13:22:16.245Z,8.55
2022-12-23T13:24:48.395Z,6.68
2022-12-23T13:27:20.060Z,8.98
2022-12-23T13:30:19.118Z,10.07
2022-12-23T13:32:57.566Z,8.77
2022-12-23T13:35:33.565Z,7.03
2022-12-23T13:38:09.462Z,5.70
2022-12-23T13:40:45.501Z,6.63
2022-12-23T13:43:19.829Z,4.93
2022-12-23T13:45:49.279Z,6.03
2022-12-23T13:49:03.987Z,7.60
2022-12-23T13:51:45.341Z,9.43
2022-12-23T13:54:20.779Z,8.60
2022-12-23T13:57:08.299Z,8.70
2022-12-23T13:59:44.170Z,8.43
2022-12-23T14:02:40.517Z,8.35
2022-12-23T14:05:29.390Z,8.45
2022-12-23T14:08:01.394Z,10.55
2022-12-23T14:10:28.484Z,10.30
2022-12-23T14:13:01.611Z,12.57
2022-12-23T14:15:43.018Z,12.45
2022-12-23T14:18:40.263Z,9.68
2022-12-23T14:21:38.732Z,11.05
2022-12-23T14:24:36.751Z,10.85
2022-12-23T14:27:35.249Z,9.82
2022-12-23T14:30:41.202Z,12.50
2022-12-23T14:33:26.226Z,11.63
2022-12-23T14:36:13.190Z,12.98
2022-12-23T14:38:39.799Z,11.90
2022-12-23T14:41:20.340Z,13.95
2022-12-23T14:43:46.689Z,11.93
2022-12-23T14:46:37.094Z,11.90
2022-12-23T14:49:36.967Z,11.82
2022-12-23T14:51:50.923Z,11.45
2022-12-23T14:54:18.515Z,10.68
2022-12-23T14:57:05.313Z,13.00
2022-12-23T14:59:46.665Z,12.13
2022-12-23T15:02:26.548Z,10.45
2022-12-23T15:04:55.342Z,10.85
2022-12-23T15:07:31.009Z,10.60
2022-12-23T15:10:03.725Z,10.90
2022-12-23T15:12:37.214Z,12.35
2022-12-23T15:15:07.579Z,11.70
2022-12-23T15:17:36.306Z,10.18
2022-12-23T15:20:22.805Z,11.30
2022-12-23T15:22:49.727Z,12.13
2022-12-23T15:25:29.035Z,9.90
2022-12-23T15:28:01.524Z,13.10
2022-12-23T15:30:33.835Z,10.98
2022-12-23T15:33:04.233Z,12.23
2022-12-23T15:35:44.602Z,12.80
2022-12-23T15:38:14.522Z,14.60
2022-12-23T15:40:41.059Z,12.63
2022-12-23T15:43:20.026Z,11.13
2022-12-23T15:45:46.409Z,13.95
2022-12-23T15:48:31.602Z,11.55
2022-12-23T15:51:25.744Z,15.65
2022-12-23T15:54:04.730Z,13.02
2022-12-23T15:56:35.136Z,12.50
2022-12-23T15:59:03.171Z,11.98
2022-12-23T16:01:38.921Z,14.07
2022-12-23T16:06:56.309Z,13.30
2022-12-23T16:09:30.758Z,13.27
2022-12-23T16:12:01.580Z,10.45
2022-12-23T16:14:31.061Z,11.13
2022-12-23T16:17:09.998Z,15.75
2022-12-23T16:19:40.721Z,11.70
2022-12-23T16:22:32.171Z,12.77
2022-12-23T16:25:31.535Z,10.50
2022-12-23T16:28:03.615Z,14.40
2022-12-23T16:30:38.007Z,11.13
2022-12-23T16:33:21.437Z,11.68
2022-12-23T16:35:48.001Z,9.80
2022-12-23T16:38:18.976Z,12.07
2022-12-23T16:40:48.471Z,12.30
2022-12-23T16:43:15.386Z,14.30
2022-12-23T16:45:44.088Z,13.68
2022-12-23T16:48:19.331Z,14.38
2022-12-23T16:50:46.802Z,12.15
2022-12-23T16:53:14.004Z,11.05
2022-12-23T16:55:46.239Z,12.82
2022-12-23T16:58:16.806Z,14.13
2022-12-23T17:00:43.453Z,12.68
2022-12-23T17:03:16.100Z,13.77
2022-12-23T17:05:42.857Z,10.90
2022-12-23T17:08:09.745Z,11.85
2022-12-23T17:10:38.092Z,12.38
2022-12-23T17:13:04.811Z,10.77
2022-12-23T17:15:31.445Z,12.25
2022-12-23T17:17:58.069Z,14.23
2022-12-23T17:20:24.559Z,20.27
2022-12-23T17:22:57.736Z,13.65
2022-12-23T17:25:26.764Z,11.55
2022-12-23T17:27:55.382Z,10.05
2022-12-23T17:30:23.818Z,10.25
2022-12-23T17:32:58.141Z,9.93
2022-12-23T17:35:25.907Z,9.70
2022-12-23T17:37:53.045Z,7.43
2022-12-23T17:40:19.827Z,6.97
2022-12-23T17:42:47.709Z,9.57
2022-12-23T17:45:29.909Z,8.30
2022-12-23T17:47:56.422Z,11.07
2022-12-23T17:50:23.838Z,7.18
2022-12-23T17:52:52.151Z,5.28
2022-12-23T17:55:24.031Z,5.93
2022-12-23T17:57:51.720Z,8.40
2022-12-23T18:00:29.772Z,9.55
2022-12-23T18:03:00.177Z,7.97
2022-12-23T18:05:31.823Z,6.93
2022-12-23T18:08:00.269Z,5.30
2022-12-23T18:10:39.006Z,6.60
2022-12-23T18:13:07.836Z,8.38
2022-12-23T18:15:41.750Z,5.60
2022-12-23T18:18:23.890Z,4.47
2022-12-23T18:20:54.829Z,5.32
2022-12-23T18:23:24.701Z,5.03
2022-12-23T18:25:51.301Z,6.25
2022-12-23T18:28:17.792Z,4.00
2022-12-23T18:30:44.509Z,11.80
2022-12-23T18:33:12.755Z,8.23
2022-12-23T18:35:43.938Z,5.45
2022-12-23T18:38:11.370Z,4.53
2022-12-23T18:40:38.987Z,4.45
2022-12-23T18:43:05.453Z,3.55
2022-12-23T18:45:37.331Z,6.15
2022-12-23T18:48:06.952Z,2.42
2022-12-23T18:50:34.804Z,3.20
2022-12-23T18:53:02.017Z,4.03
2022-12-23T18:55:30.294Z,3.30
2022-12-23T18:57:58.303Z,4.68
2022-12-23T19:00:27.483Z,4.78
2022-12-23T19:02:54.866Z,2.88
2022-12-23T19:05:25.163Z,2.78
2022-12-23T19:07:55.350Z,4.68
2022-12-23T19:10:25.258Z,2.97
2022-12-23T19:12:52.652Z,4.07
2022-12-23T19:15:20.413Z,3.15
2022-12-23T19:17:47.471Z,3.78
2022-12-23T19:20:15.720Z,3.13
2022-12-23T19:22:42.309Z,3.05
2022-12-23T19:25:12.139Z,2.40
2022-12-23T19:27:40.068Z,2.63
2022-12-23T19:30:08.735Z,2.50
2022-12-23T19:32:35.180Z,3.55
2022-12-23T19:35:02.062Z,2.63
2022-12-23T19:37:28.524Z,2.00
2022-12-23T19:39:55.257Z,3.55
2022-12-23T19:42:21.654Z,1.52
2022-12-23T19:44:48.063Z,1.73
2022-12-23T19:47:14.435Z,5.63
2022-12-23T19:49:40.857Z,3.80
2022-12-23T19:52:07.291Z,2.38
2022-12-23T19:54:33.708Z,2.00
2022-12-23T19:57:00.111Z,1.17
2022-12-23T19:59:26.672Z,2.30
2022-12-23T20:01:53.208Z,1.83
2022-12-23T20:04:19.723Z,2.33
2022-12-23T20:06:46.136Z,6.15
2022-12-23T20:09:13.477Z,3.45
2022-12-23T20:11:42.983Z,4.00
2022-12-23T20:14:10.578Z,1.40
2022-12-23T20:16:38.480Z,3.70
2022-12-23T20:19:06.026Z,3.45
2022-12-23T20:21:33.883Z,4.13
2022-12-23T20:24:00.651Z,3.75
2022-12-23T20:26:28.900Z,2.15
2022-12-23T20:28:56.772Z,3.35
2022-12-23T20:31:25.428Z,3.88
2022-12-23T20:33:52.774Z,3.10
2022-12-23T20:36:22.482Z,2.88
2022-12-23T20:38:50.618Z,2.53
2022-12-23T20:41:20.737Z,3.20
2022-12-23T20:44:02.775Z,2.08
2022-12-23T20:46:34.321Z,4.13
2022-12-23T20:49:00.885Z,5.45
2022-12-23T20:51:27.520Z,2.67
2022-12-23T20:53:56.019Z,3.38
2022-12-23T20:56:27.607Z,3.80
2022-12-23T20:58:54.949Z,5.28
2022-12-23T21:01:29.012Z,6.32
2022-12-23T21:03:57.841Z,4.78
2022-12-23T21:06:24.955Z,4.40
2022-12-23T21:08:52.267Z,5.63
2022-12-23T21:11:19.174Z,4.70
2022-12-23T21:13:49.593Z,5.63
2022-12-23T21:16:16.906Z,4.40
2022-12-23T21:18:45.725Z,3.35
2022-12-23T21:21:12.474Z,3.05
2022-12-23T21:23:41.301Z,2.20
2022-12-23T21:26:11.124Z,3.65
2022-12-23T21:28:38.857Z,2.38
2022-12-23T21:31:06.665Z,2.17
2022-12-23T21:33:40.806Z,2.22
2022-12-23T21:36:08.251Z,2.40
2022-12-23T21:38:37.554Z,2.55
2022-12-23T21:41:06.575Z,4.95
2022-12-23T21:43:33.155Z,3.28
2022-12-23T21:46:01.670Z,2.55
2022-12-23T21:48:30.643Z,2.35
2022-12-23T21:51:22.680Z,4.32
2022-12-23T21:53:51.493Z,5.47
2022-12-23T21:56:21.176Z,4.15
2022-12-23T21:58:47.784Z,2.77
2022-12-23T22:01:19.413Z,5.30
2022-12-23T22:03:47.853Z,3.35
2022-12-23T22:06:20.411Z,6.47
2022-12-23T22:08:47.679Z,3.08
2022-12-23T22:11:16.743Z,4.95
2022-12-23T22:13:43.792Z,3.08
2022-12-23T22:16:12.120Z,5.47
2022-12-23T22:18:39.102Z,4.18
2022-12-23T22:21:06.524Z,3.90
2022-12-23T22:23:33.088Z,2.83
2022-12-23T22:25:59.685Z,5.40
2022-12-23T22:28:26.087Z,2.95
2022-12-23T22:30:52.487Z,4.88
2022-12-23T22:33:19.027Z,5.75
2022-12-23T22:35:54.475Z,2.45
2022-12-23T22:38:21.040Z,4.10
2022-12-23T22:40:51.805Z,7.20
2022-12-23T22:43:18.812Z,5.43
2022-12-23T22:45:46.064Z,3.63
2022-12-23T22:48:12.909Z,3.97
2022-12-23T22:50:39.382Z,4.60
2022-12-23T22:53:05.827Z,5.45
2022-12-23T22:55:32.225Z,4.45
2022-12-23T22:57:58.614Z,8.50
2022-12-23T23:00:25.060Z,7.30
2022-12-23T23:02:51.439Z,11.18
2022-12-23T23:05:17.923Z,3.78
2022-12-23T23:07:44.356Z,12.25
2022-12-23T23:10:11.994Z,9.32
2022-12-23T23:12:38.592Z,6.95
2022-12-23T23:15:05.394Z,5.55
2022-12-23T23:17:31.798Z,6.80
2022-12-23T23:19:58.295Z,7.25
2022-12-23T23:22:25.305Z,8.38
2022-12-23T23:24:52.337Z,9.63
2022-12-23T23:27:19.071Z,9.90
2022-12-23T23:29:45.576Z,8.80
2022-12-23T23:32:12.311Z,9.75
2022-12-23T23:34:38.770Z,5.28
2022-12-23T23:37:05.273Z,6.18
2022-12-23T23:39:31.790Z,9.98
2022-12-23T23:41:58.352Z,6.38
2022-12-23T23:44:24.810Z,5.15
2022-12-23T23:46:51.191Z,5.53
2022-12-23T23:49:17.649Z,5.63
2022-12-23T23:51:44.223Z,7.18
2022-12-23T23:54:10.709Z,5.97
2022-12-23T23:56:39.065Z,7.57
2022-12-23T23:59:06.624Z,5.63
